sensor_id;sensor_type;location;lat;lon;timestamp;P1;durP1;ratioP1;P2;durP2;ratioP2
12267;SDS011;6196;48.398;11.736;2023-01-13T00:00:13;1.03;;;0.50;;
12267;SDS011;6196;48.398;11.736;2023-01-13T00:02:41;1.23;;;0.50;;
12267;SDS011;6196;48.398;11.736;2023-01-13T00:05:08;1.43;;;0.60;;
12267;SDS011;6196;48.398;11.736;2023-01-13T00:07:36;4.00;;;0.80;;
12267;SDS011;6196;48.398;11.736;2023-01-13T00:10:08;0.83;;;0.43;;
12267;SDS011;6196;48.398;11.736;2023-01-13T00:12:40;1.70;;;0.70;;
12267;SDS011;6196;48.398;11.736;2023-01-13T00:15:08;1.27;;;0.40;;
12267;SDS011;6196;48.398;11.736;2023-01-13T00:17:36;0.80;;;0.40;;
12267;SDS011;6196;48.398;11.736;2023-01-13T00:20:04;1.57;;;0.53;;
12267;SDS011;6196;48.398;11.736;2023-01-13T00:22:32;1.57;;;0.50;;
12267;SDS011;6196;48.398;11.736;2023-01-13T00:25:00;0.80;;;0.50;;
12267;SDS011;6196;48.398;11.736;2023-01-13T00:27:29;2.37;;;0.50;;
12267;SDS011;6196;48.398;11.736;2023-01-13T00:29:56;1.60;;;0.60;;
12267;SDS011;6196;48.398;11.736;2023-01-13T00:32:23;1.20;;;0.40;;
12267;SDS011;6196;48.398;11.736;2023-01-13T00:34:50;0.63;;;0.40;;
12267;SDS011;6196;48.398;11.736;2023-01-13T00:37:17;1.07;;;0.30;;
12267;SDS011;6196;48.398;11.736;2023-01-13T00:39:44;2.30;;;0.57;;
12267;SDS011;6196;48.398;11.736;2023-01-13T00:42:11;0.77;;;0.50;;
12267;SDS011;6196;48.398;11.736;2023-01-13T00:44:56;1.40;;;0.63;;
12267;SDS011;6196;48.398;11.736;2023-01-13T00:47:23;3.27;;;0.60;;
12267;SDS011;6196;48.398;11.736;2023-01-13T00:49:50;0.70;;;0.40;;
12267;SDS011;6196;48.398;11.736;2023-01-13T00:52:17;0.93;;;0.40;;
12267;SDS011;6196;48.398;11.736;2023-01-13T00:54:44;1.07;;;0.50;;
12267;SDS011;6196;48.398;11.736;2023-01-13T00:57:11;2.37;;;0.60;;
12267;SDS011;6196;48.398;11.736;2023-01-13T00:59:37;2.30;;;0.60;;
12267;SDS011;6196;48.398;11.736;2023-01-13T01:02:04;1.70;;;0.50;;
12267;SDS011;6196;48.398;11.736;2023-01-13T01:04:31;1.57;;;0.70;;
12267;SDS011;6196;48.398;11.736;2023-01-13T01:06:58;1.57;;;0.40;;
12267;SDS011;6196;48.398;11.736;2023-01-13T01:09:25;1.33;;;0.50;;
12267;SDS011;6196;48.398;11.736;2023-01-13T01:11:58;1.47;;;0.60;;
12267;SDS011;6196;48.398;11.736;2023-01-13T01:14:26;3.00;;;0.60;;
12267;SDS011;6196;48.398;11.736;2023-01-13T01:16:53;1.10;;;0.60;;
12267;SDS011;6196;48.398;11.736;2023-01-13T01:19:20;0.50;;;0.30;;
12267;SDS011;6196;48.398;11.736;2023-01-13T01:21:46;4.70;;;0.60;;
12267;SDS011;6196;48.398;11.736;2023-01-13T01:24:13;1.90;;;0.50;;
12267;SDS011;6196;48.398;11.736;2023-01-13T01:26:41;1.37;;;0.77;;
12267;SDS011;6196;48.398;11.736;2023-01-13T01:29:10;0.83;;;0.47;;
12267;SDS011;6196;48.398;11.736;2023-01-13T01:31:40;0.80;;;0.57;;
12267;SDS011;6196;48.398;11.736;2023-01-13T01:34:08;1.10;;;0.50;;
12267;SDS011;6196;48.398;11.736;2023-01-13T01:36:35;1.43;;;0.50;;
12267;SDS011;6196;48.398;11.736;2023-01-13T01:39:02;3.30;;;0.50;;
12267;SDS011;6196;48.398;11.736;2023-01-13T01:41:30;0.80;;;0.40;;
12267;SDS011;6196;48.398;11.736;2023-01-13T01:47:08;0.67;;;0.40;;
12267;SDS011;6196;48.398;11.736;2023-01-13T01:49:39;3.30;;;0.80;;
12267;SDS011;6196;48.398;11.736;2023-01-13T01:52:07;1.10;;;0.50;;
12267;SDS011;6196;48.398;11.736;2023-01-13T01:57:26;0.97;;;0.40;;
12267;SDS011;6196;48.398;11.736;2023-01-13T02:00:02;1.23;;;0.50;;
12267;SDS011;6196;48.398;11.736;2023-01-13T02:02:30;1.90;;;0.67;;
12267;SDS011;6196;48.398;11.736;2023-01-13T02:04:57;1.80;;;0.47;;
12267;SDS011;6196;48.398;11.736;2023-01-13T02:07:26;0.97;;;0.40;;
12267;SDS011;6196;48.398;11.736;2023-01-13T02:09:56;0.47;;;0.40;;
12267;SDS011;6196;48.398;11.736;2023-01-13T02:12:28;1.83;;;0.50;;
12267;SDS011;6196;48.398;11.736;2023-01-13T02:15:10;1.47;;;0.40;;
12267;SDS011;6196;48.398;11.736;2023-01-13T02:38:11;1.20;;;0.30;;
12267;SDS011;6196;48.398;11.736;2023-01-13T02:43:35;0.40;;;0.30;;
12267;SDS011;6196;48.398;11.736;2023-01-13T02:46:27;1.43;;;0.50;;
12267;SDS011;6196;48.398;11.736;2023-01-13T02:49:00;1.70;;;0.30;;
12267;SDS011;6196;48.398;11.736;2023-01-13T02:51:32;1.80;;;0.30;;
12267;SDS011;6196;48.398;11.736;2023-01-13T02:54:14;2.03;;;0.50;;
12267;SDS011;6196;48.398;11.736;2023-01-13T02:56:47;0.67;;;0.27;;
12267;SDS011;6196;48.398;11.736;2023-01-13T02:59:16;1.37;;;0.40;;
12267;SDS011;6196;48.398;11.736;2023-01-13T03:01:45;1.03;;;0.40;;
12267;SDS011;6196;48.398;11.736;2023-01-13T03:04:43;0.50;;;0.33;;
12267;SDS011;6196;48.398;11.736;2023-01-13T03:07:21;2.47;;;0.60;;
12267;SDS011;6196;48.398;11.736;2023-01-13T03:10:18;2.07;;;0.50;;
12267;SDS011;6196;48.398;11.736;2023-01-13T03:12:59;0.83;;;0.30;;
12267;SDS011;6196;48.398;11.736;2023-01-13T03:24:27;1.00;;;0.50;;
12267;SDS011;6196;48.398;11.736;2023-01-13T03:32:59;0.60;;;0.40;;
12267;SDS011;6196;48.398;11.736;2023-01-13T03:35:37;1.13;;;0.30;;
12267;SDS011;6196;48.398;11.736;2023-01-13T03:38:10;1.73;;;0.50;;
12267;SDS011;6196;48.398;11.736;2023-01-13T03:40:49;1.43;;;0.60;;
12267;SDS011;6196;48.398;11.736;2023-01-13T03:43:26;0.67;;;0.30;;
12267;SDS011;6196;48.398;11.736;2023-01-13T03:52:24;0.87;;;0.37;;
12267;SDS011;6196;48.398;11.736;2023-01-13T03:54:59;0.90;;;0.30;;
12267;SDS011;6196;48.398;11.736;2023-01-13T03:57:40;0.90;;;0.40;;
12267;SDS011;6196;48.398;11.736;2023-01-13T04:00:14;1.13;;;0.40;;
12267;SDS011;6196;48.398;11.736;2023-01-13T04:03:04;0.27;;;0.20;;
12267;SDS011;6196;48.398;11.736;2023-01-13T04:05:38;1.50;;;0.40;;
12267;SDS011;6196;48.398;11.736;2023-01-13T04:08:16;1.07;;;0.40;;
12267;SDS011;6196;48.398;11.736;2023-01-13T04:10:55;0.20;;;0.20;;
12267;SDS011;6196;48.398;11.736;2023-01-13T04:13:29;0.97;;;0.30;;
12267;SDS011;6196;48.398;11.736;2023-01-13T04:16:01;0.60;;;0.40;;
12267;SDS011;6196;48.398;11.736;2023-01-13T04:18:35;0.63;;;0.30;;
12267;SDS011;6196;48.398;11.736;2023-01-13T04:21:04;0.83;;;0.30;;
12267;SDS011;6196;48.398;11.736;2023-01-13T04:23:32;0.40;;;0.20;;
12267;SDS011;6196;48.398;11.736;2023-01-13T04:25:59;1.23;;;0.50;;
12267;SDS011;6196;48.398;11.736;2023-01-13T04:28:26;1.20;;;0.40;;
12267;SDS011;6196;48.398;11.736;2023-01-13T04:30:53;0.50;;;0.30;;
12267;SDS011;6196;48.398;11.736;2023-01-13T04:33:19;0.60;;;0.30;;
12267;SDS011;6196;48.398;11.736;2023-01-13T04:35:46;0.57;;;0.30;;
12267;SDS011;6196;48.398;11.736;2023-01-13T04:38:15;0.37;;;0.20;;
12267;SDS011;6196;48.398;11.736;2023-01-13T04:40:44;1.50;;;0.47;;
12267;SDS011;6196;48.398;11.736;2023-01-13T04:43:12;1.70;;;0.40;;
12267;SDS011;6196;48.398;11.736;2023-01-13T04:45:41;1.77;;;0.40;;
12267;SDS011;6196;48.398;11.736;2023-01-13T04:48:08;1.30;;;0.50;;
12267;SDS011;6196;48.398;11.736;2023-01-13T04:50:35;0.37;;;0.30;;
12267;SDS011;6196;48.398;11.736;2023-01-13T04:53:02;0.27;;;0.20;;
12267;SDS011;6196;48.398;11.736;2023-01-13T04:55:29;1.17;;;0.40;;
12267;SDS011;6196;48.398;11.736;2023-01-13T04:58:04;0.60;;;0.40;;
12267;SDS011;6196;48.398;11.736;2023-01-13T05:00:34;0.30;;;0.30;;
12267;SDS011;6196;48.398;11.736;2023-01-13T05:03:02;2.47;;;0.33;;
12267;SDS011;6196;48.398;11.736;2023-01-13T05:05:30;0.70;;;0.30;;
12267;SDS011;6196;48.398;11.736;2023-01-13T05:07:56;0.23;;;0.23;;
12267;SDS011;6196;48.398;11.736;2023-01-13T05:10:23;0.53;;;0.27;;
12267;SDS011;6196;48.398;11.736;2023-01-13T05:12:50;0.30;;;0.20;;
12267;SDS011;6196;48.398;11.736;2023-01-13T05:15:38;0.50;;;0.30;;
12267;SDS011;6196;48.398;11.736;2023-01-13T05:18:24;0.57;;;0.30;;
12267;SDS011;6196;48.398;11.736;2023-01-13T05:20:52;1.10;;;0.43;;
12267;SDS011;6196;48.398;11.736;2023-01-13T05:23:19;1.00;;;0.50;;
12267;SDS011;6196;48.398;11.736;2023-01-13T05:26:05;1.03;;;0.30;;
12267;SDS011;6196;48.398;11.736;2023-01-13T05:28:32;0.80;;;0.27;;
12267;SDS011;6196;48.398;11.736;2023-01-13T05:31:00;1.67;;;0.50;;
12267;SDS011;6196;48.398;11.736;2023-01-13T05:33:27;1.23;;;0.30;;
12267;SDS011;6196;48.398;11.736;2023-01-13T05:35:54;0.87;;;0.33;;
12267;SDS011;6196;48.398;11.736;2023-01-13T05:38:21;0.60;;;0.40;;
12267;SDS011;6196;48.398;11.736;2023-01-13T05:40:47;0.87;;;0.40;;
12267;SDS011;6196;48.398;11.736;2023-01-13T05:43:32;0.90;;;0.30;;
12267;SDS011;6196;48.398;11.736;2023-01-13T05:46:04;1.13;;;0.33;;
12267;SDS011;6196;48.398;11.736;2023-01-13T05:48:35;1.13;;;0.73;;
12267;SDS011;6196;48.398;11.736;2023-01-13T05:51:05;2.33;;;0.50;;
12267;SDS011;6196;48.398;11.736;2023-01-13T05:53:35;1.30;;;0.53;;
12267;SDS011;6196;48.398;11.736;2023-01-13T05:56:03;1.37;;;0.47;;
12267;SDS011;6196;48.398;11.736;2023-01-13T05:58:31;0.77;;;0.53;;
12267;SDS011;6196;48.398;11.736;2023-01-13T06:01:00;0.80;;;0.40;;
12267;SDS011;6196;48.398;11.736;2023-01-13T06:03:29;1.00;;;0.30;;
12267;SDS011;6196;48.398;11.736;2023-01-13T06:05:56;1.20;;;0.40;;
12267;SDS011;6196;48.398;11.736;2023-01-13T06:08:26;1.20;;;0.40;;
12267;SDS011;6196;48.398;11.736;2023-01-13T06:10:53;1.47;;;0.40;;
12267;SDS011;6196;48.398;11.736;2023-01-13T06:13:20;1.60;;;0.40;;
12267;SDS011;6196;48.398;11.736;2023-01-13T06:15:47;0.77;;;0.40;;
12267;SDS011;6196;48.398;11.736;2023-01-13T06:18:14;1.43;;;0.50;;
12267;SDS011;6196;48.398;11.736;2023-01-13T06:20:41;1.20;;;0.30;;
12267;SDS011;6196;48.398;11.736;2023-01-13T06:23:08;1.27;;;0.30;;
12267;SDS011;6196;48.398;11.736;2023-01-13T06:25:38;0.53;;;0.30;;
12267;SDS011;6196;48.398;11.736;2023-01-13T06:28:21;0.90;;;0.40;;
12267;SDS011;6196;48.398;11.736;2023-01-13T06:30:49;0.63;;;0.50;;
12267;SDS011;6196;48.398;11.736;2023-01-13T06:33:28;0.60;;;0.30;;
12267;SDS011;6196;48.398;11.736;2023-01-13T06:36:00;0.50;;;0.37;;
12267;SDS011;6196;48.398;11.736;2023-01-13T06:38:36;0.40;;;0.30;;
12267;SDS011;6196;48.398;11.736;2023-01-13T06:41:06;1.23;;;0.60;;
12267;SDS011;6196;48.398;11.736;2023-01-13T06:43:34;0.70;;;0.40;;
12267;SDS011;6196;48.398;11.736;2023-01-13T06:46:01;0.93;;;0.33;;
12267;SDS011;6196;48.398;11.736;2023-01-13T06:48:29;0.73;;;0.50;;
12267;SDS011;6196;48.398;11.736;2023-01-13T06:51:00;1.10;;;0.50;;
12267;SDS011;6196;48.398;11.736;2023-01-13T06:53:28;0.93;;;0.37;;
12267;SDS011;6196;48.398;11.736;2023-01-13T06:55:55;1.20;;;0.53;;
12267;SDS011;6196;48.398;11.736;2023-01-13T06:58:22;1.00;;;0.40;;
12267;SDS011;6196;48.398;11.736;2023-01-13T07:00:49;0.90;;;0.40;;
12267;SDS011;6196;48.398;11.736;2023-01-13T07:03:17;0.73;;;0.40;;
12267;SDS011;6196;48.398;11.736;2023-01-13T07:05:52;0.30;;;0.30;;
12267;SDS011;6196;48.398;11.736;2023-01-13T07:08:21;1.03;;;0.40;;
12267;SDS011;6196;48.398;11.736;2023-01-13T07:10:49;0.97;;;0.40;;
12267;SDS011;6196;48.398;11.736;2023-01-13T07:13:16;0.40;;;0.30;;
12267;SDS011;6196;48.398;11.736;2023-01-13T07:16:03;0.97;;;0.40;;
12267;SDS011;6196;48.398;11.736;2023-01-13T07:18:32;0.50;;;0.40;;
12267;SDS011;6196;48.398;11.736;2023-01-13T07:21:00;1.47;;;0.30;;
12267;SDS011;6196;48.398;11.736;2023-01-13T07:23:35;1.47;;;0.50;;
12267;SDS011;6196;48.398;11.736;2023-01-13T07:26:04;1.27;;;0.30;;
12267;SDS011;6196;48.398;11.736;2023-01-13T07:28:34;0.93;;;0.50;;
12267;SDS011;6196;48.398;11.736;2023-01-13T07:31:01;1.23;;;0.40;;
12267;SDS011;6196;48.398;11.736;2023-01-13T07:33:28;0.20;;;0.20;;
12267;SDS011;6196;48.398;11.736;2023-01-13T07:35:59;0.47;;;0.20;;
12267;SDS011;6196;48.398;11.736;2023-01-13T07:38:31;1.70;;;0.40;;
12267;SDS011;6196;48.398;11.736;2023-01-13T07:40:59;0.60;;;0.40;;
12267;SDS011;6196;48.398;11.736;2023-01-13T07:43:49;1.80;;;0.60;;
12267;SDS011;6196;48.398;11.736;2023-01-13T07:46:17;1.13;;;0.50;;
12267;SDS011;6196;48.398;11.736;2023-01-13T07:48:45;1.50;;;0.50;;
12267;SDS011;6196;48.398;11.736;2023-01-13T07:51:13;0.80;;;0.30;;
12267;SDS011;6196;48.398;11.736;2023-01-13T07:53:40;2.00;;;0.50;;
12267;SDS011;6196;48.398;11.736;2023-01-13T07:56:07;0.73;;;0.40;;
12267;SDS011;6196;48.398;11.736;2023-01-13T07:58:34;0.80;;;0.60;;
12267;SDS011;6196;48.398;11.736;2023-01-13T08:01:09;1.63;;;0.73;;
12267;SDS011;6196;48.398;11.736;2023-01-13T08:03:39;0.60;;;0.40;;
12267;SDS011;6196;48.398;11.736;2023-01-13T08:06:07;0.83;;;0.60;;
12267;SDS011;6196;48.398;11.736;2023-01-13T08:08:36;0.97;;;0.40;;
12267;SDS011;6196;48.398;11.736;2023-01-13T08:11:04;1.03;;;0.40;;
12267;SDS011;6196;48.398;11.736;2023-01-13T08:13:33;0.83;;;0.30;;
12267;SDS011;6196;48.398;11.736;2023-01-13T08:16:01;0.60;;;0.40;;
12267;SDS011;6196;48.398;11.736;2023-01-13T08:18:31;0.87;;;0.30;;
12267;SDS011;6196;48.398;11.736;2023-01-13T08:21:03;0.40;;;0.40;;
12267;SDS011;6196;48.398;11.736;2023-01-13T08:23:39;0.40;;;0.30;;
12267;SDS011;6196;48.398;11.736;2023-01-13T08:26:09;1.40;;;0.33;;
12267;SDS011;6196;48.398;11.736;2023-01-13T08:28:39;0.60;;;0.40;;
12267;SDS011;6196;48.398;11.736;2023-01-13T08:31:08;0.67;;;0.57;;
12267;SDS011;6196;48.398;11.736;2023-01-13T08:33:38;0.80;;;0.40;;
12267;SDS011;6196;48.398;11.736;2023-01-13T08:36:06;0.50;;;0.33;;
12267;SDS011;6196;48.398;11.736;2023-01-13T08:38:35;1.27;;;0.30;;
12267;SDS011;6196;48.398;11.736;2023-01-13T08:41:12;0.83;;;0.40;;
12267;SDS011;6196;48.398;11.736;2023-01-13T08:44:01;0.30;;;0.30;;
12267;SDS011;6196;48.398;11.736;2023-01-13T08:46:28;0.50;;;0.23;;
12267;SDS011;6196;48.398;11.736;2023-01-13T08:48:55;1.10;;;0.40;;
12267;SDS011;6196;48.398;11.736;2023-01-13T08:51:22;1.30;;;0.40;;
12267;SDS011;6196;48.398;11.736;2023-01-13T08:53:49;2.20;;;0.40;;
12267;SDS011;6196;48.398;11.736;2023-01-13T08:56:16;0.70;;;0.40;;
12267;SDS011;6196;48.398;11.736;2023-01-13T08:58:43;0.87;;;0.27;;
12267;SDS011;6196;48.398;11.736;2023-01-13T09:01:10;0.87;;;0.40;;
12267;SDS011;6196;48.398;11.736;2023-01-13T09:03:40;0.40;;;0.30;;
12267;SDS011;6196;48.398;11.736;2023-01-13T09:06:07;0.90;;;0.40;;
12267;SDS011;6196;48.398;11.736;2023-01-13T09:08:34;0.63;;;0.40;;
12267;SDS011;6196;48.398;11.736;2023-01-13T09:11:01;0.60;;;0.40;;
12267;SDS011;6196;48.398;11.736;2023-01-13T09:13:48;1.27;;;0.30;;
12267;SDS011;6196;48.398;11.736;2023-01-13T09:16:15;0.63;;;0.50;;
12267;SDS011;6196;48.398;11.736;2023-01-13T09:18:42;1.03;;;0.37;;
12267;SDS011;6196;48.398;11.736;2023-01-13T09:21:09;0.50;;;0.30;;
12267;SDS011;6196;48.398;11.736;2023-01-13T09:23:36;1.20;;;0.37;;
12267;SDS011;6196;48.398;11.736;2023-01-13T09:26:03;0.40;;;0.30;;
12267;SDS011;6196;48.398;11.736;2023-01-13T09:28:30;1.50;;;0.60;;
12267;SDS011;6196;48.398;11.736;2023-01-13T09:31:01;0.83;;;0.50;;
12267;SDS011;6196;48.398;11.736;2023-01-13T09:33:28;1.00;;;0.47;;
12267;SDS011;6196;48.398;11.736;2023-01-13T09:36:13;1.73;;;0.50;;
12267;SDS011;6196;48.398;11.736;2023-01-13T09:38:40;0.40;;;0.30;;
12267;SDS011;6196;48.398;11.736;2023-01-13T09:41:12;0.60;;;0.50;;
12267;SDS011;6196;48.398;11.736;2023-01-13T09:44:08;1.90;;;0.60;;
12267;SDS011;6196;48.398;11.736;2023-01-13T09:46:48;0.40;;;0.30;;
12267;SDS011;6196;48.398;11.736;2023-01-13T09:49:19;3.93;;;0.67;;
12267;SDS011;6196;48.398;11.736;2023-01-13T09:52:03;0.70;;;0.37;;
12267;SDS011;6196;48.398;11.736;2023-01-13T09:55:23;1.40;;;0.50;;
12267;SDS011;6196;48.398;11.736;2023-01-13T09:57:37;0.70;;;0.40;;
12267;SDS011;6196;48.398;11.736;2023-01-13T10:00:12;0.80;;;0.40;;
12267;SDS011;6196;48.398;11.736;2023-01-13T10:03:09;0.70;;;0.40;;
12267;SDS011;6196;48.398;11.736;2023-01-13T10:06:09;1.23;;;0.33;;
12267;SDS011;6196;48.398;11.736;2023-01-13T10:08:46;0.30;;;0.30;;
12267;SDS011;6196;48.398;11.736;2023-01-13T10:11:18;0.70;;;0.50;;
12267;SDS011;6196;48.398;11.736;2023-01-13T10:14:17;1.47;;;0.40;;
12267;SDS011;6196;48.398;11.736;2023-01-13T10:19:40;1.20;;;0.40;;
12267;SDS011;6196;48.398;11.736;2023-01-13T10:22:37;0.60;;;0.30;;
12267;SDS011;6196;48.398;11.736;2023-01-13T10:27:47;0.87;;;0.40;;
12267;SDS011;6196;48.398;11.736;2023-01-13T10:32:57;0.50;;;0.30;;
12267;SDS011;6196;48.398;11.736;2023-01-13T10:38:15;0.90;;;0.50;;
12267;SDS011;6196;48.398;11.736;2023-01-13T10:40:48;1.13;;;0.37;;
12267;SDS011;6196;48.398;11.736;2023-01-13T10:43:42;1.50;;;0.30;;
12267;SDS011;6196;48.398;11.736;2023-01-13T10:46:24;0.47;;;0.40;;
12267;SDS011;6196;48.398;11.736;2023-01-13T10:48:54;1.00;;;0.40;;
12267;SDS011;6196;48.398;11.736;2023-01-13T10:51:27;1.00;;;0.40;;
12267;SDS011;6196;48.398;11.736;2023-01-13T10:54:00;1.23;;;0.30;;
12267;SDS011;6196;48.398;11.736;2023-01-13T10:56:45;1.03;;;0.40;;
12267;SDS011;6196;48.398;11.736;2023-01-13T11:01:57;1.43;;;0.57;;
12267;SDS011;6196;48.398;11.736;2023-01-13T11:07:36;1.50;;;0.40;;
12267;SDS011;6196;48.398;11.736;2023-01-13T11:12:56;0.40;;;0.30;;
12267;SDS011;6196;48.398;11.736;2023-01-13T11:18:25;0.80;;;0.47;;
12267;SDS011;6196;48.398;11.736;2023-01-13T11:21:29;1.33;;;0.47;;
12267;SDS011;6196;48.398;11.736;2023-01-13T11:24:09;1.47;;;0.40;;
12267;SDS011;6196;48.398;11.736;2023-01-13T11:26:44;0.40;;;0.40;;
12267;SDS011;6196;48.398;11.736;2023-01-13T11:29:37;0.43;;;0.30;;
12267;SDS011;6196;48.398;11.736;2023-01-13T11:32:23;1.30;;;0.30;;
12267;SDS011;6196;48.398;11.736;2023-01-13T11:34:52;1.00;;;0.30;;
12267;SDS011;6196;48.398;11.736;2023-01-13T11:37:27;0.77;;;0.30;;
12267;SDS011;6196;48.398;11.736;2023-01-13T11:40:05;0.53;;;0.40;;
12267;SDS011;6196;48.398;11.736;2023-01-13T11:42:58;1.37;;;0.30;;
12267;SDS011;6196;48.398;11.736;2023-01-13T11:45:36;0.60;;;0.30;;
12267;SDS011;6196;48.398;11.736;2023-01-13T11:48:19;0.60;;;0.30;;
12267;SDS011;6196;48.398;11.736;2023-01-13T12:10:16;1.13;;;0.33;;
12267;SDS011;6196;48.398;11.736;2023-01-13T12:13:00;0.53;;;0.40;;
12267;SDS011;6196;48.398;11.736;2023-01-13T12:16:01;1.00;;;0.40;;
12267;SDS011;6196;48.398;11.736;2023-01-13T12:21:27;0.83;;;0.40;;
12267;SDS011;6196;48.398;11.736;2023-01-13T12:26:59;0.93;;;0.40;;
12267;SDS011;6196;48.398;11.736;2023-01-13T12:29:35;6.10;;;0.50;;
12267;SDS011;6196;48.398;11.736;2023-01-13T12:32:16;0.80;;;0.40;;
12267;SDS011;6196;48.398;11.736;2023-01-13T12:38:03;0.63;;;0.40;;
12267;SDS011;6196;48.398;11.736;2023-01-13T12:43:46;1.63;;;0.60;;
12267;SDS011;6196;48.398;11.736;2023-01-13T12:46:33;0.47;;;0.40;;
12267;SDS011;6196;48.398;11.736;2023-01-13T12:49:18;2.80;;;0.60;;
12267;SDS011;6196;48.398;11.736;2023-01-13T12:57:23;1.17;;;0.60;;
12267;SDS011;6196;48.398;11.736;2023-01-13T13:00:13;0.67;;;0.43;;
12267;SDS011;6196;48.398;11.736;2023-01-13T13:02:41;0.70;;;0.30;;
12267;SDS011;6196;48.398;11.736;2023-01-13T13:08:21;0.60;;;0.60;;
12267;SDS011;6196;48.398;11.736;2023-01-13T13:14:02;1.07;;;0.40;;
12267;SDS011;6196;48.398;11.736;2023-01-13T13:16:46;0.60;;;0.50;;
12267;SDS011;6196;48.398;11.736;2023-01-13T13:27:23;1.13;;;0.60;;
12267;SDS011;6196;48.398;11.736;2023-01-13T13:36:34;1.73;;;0.40;;
12267;SDS011;6196;48.398;11.736;2023-01-13T13:42:11;1.70;;;0.40;;
12267;SDS011;6196;48.398;11.736;2023-01-13T13:45:00;0.70;;;0.37;;
12267;SDS011;6196;48.398;11.736;2023-01-13T13:47:58;0.70;;;0.50;;
12267;SDS011;6196;48.398;11.736;2023-01-13T13:50:28;0.50;;;0.40;;
12267;SDS011;6196;48.398;11.736;2023-01-13T13:53:01;0.83;;;0.30;;
12267;SDS011;6196;48.398;11.736;2023-01-13T13:55:31;6.10;;;0.40;;
12267;SDS011;6196;48.398;11.736;2023-01-13T13:57:58;1.13;;;0.50;;
12267;SDS011;6196;48.398;11.736;2023-01-13T14:00:28;0.50;;;0.40;;
12267;SDS011;6196;48.398;11.736;2023-01-13T14:03:34;0.77;;;0.30;;
12267;SDS011;6196;48.398;11.736;2023-01-13T14:06:02;0.30;;;0.27;;
12267;SDS011;6196;48.398;11.736;2023-01-13T14:08:32;3.13;;;0.57;;
12267;SDS011;6196;48.398;11.736;2023-01-13T14:14:01;0.93;;;0.50;;
12267;SDS011;6196;48.398;11.736;2023-01-13T14:16:38;0.83;;;0.40;;
12267;SDS011;6196;48.398;11.736;2023-01-13T14:19:15;2.30;;;0.40;;
12267;SDS011;6196;48.398;11.736;2023-01-13T14:21:54;0.37;;;0.30;;
12267;SDS011;6196;48.398;11.736;2023-01-13T14:24:21;0.60;;;0.37;;
12267;SDS011;6196;48.398;11.736;2023-01-13T14:26:50;1.17;;;0.40;;
12267;SDS011;6196;48.398;11.736;2023-01-13T14:29:20;0.83;;;0.40;;
12267;SDS011;6196;48.398;11.736;2023-01-13T14:31:49;0.30;;;0.27;;
12267;SDS011;6196;48.398;11.736;2023-01-13T14:34:20;2.97;;;0.40;;
12267;SDS011;6196;48.398;11.736;2023-01-13T14:36:58;0.30;;;0.30;;
12267;SDS011;6196;48.398;11.736;2023-01-13T14:42:09;0.77;;;0.40;;
12267;SDS011;6196;48.398;11.736;2023-01-13T14:44:45;1.50;;;0.40;;
12267;SDS011;6196;48.398;11.736;2023-01-13T14:47:22;0.40;;;0.37;;
12267;SDS011;6196;48.398;11.736;2023-01-13T14:52:45;2.00;;;0.50;;
12267;SDS011;6196;48.398;11.736;2023-01-13T14:55:31;2.20;;;0.40;;
12267;SDS011;6196;48.398;11.736;2023-01-13T15:00:49;3.53;;;0.80;;
12267;SDS011;6196;48.398;11.736;2023-01-13T15:03:19;1.57;;;0.60;;
12267;SDS011;6196;48.398;11.736;2023-01-13T15:05:48;2.43;;;0.60;;
12267;SDS011;6196;48.398;11.736;2023-01-13T15:08:22;0.83;;;0.50;;
12267;SDS011;6196;48.398;11.736;2023-01-13T15:11:04;0.60;;;0.40;;
12267;SDS011;6196;48.398;11.736;2023-01-13T15:13:43;0.77;;;0.30;;
12267;SDS011;6196;48.398;11.736;2023-01-13T15:16:25;1.90;;;0.53;;
12267;SDS011;6196;48.398;11.736;2023-01-13T15:18:53;1.90;;;0.50;;
12267;SDS011;6196;48.398;11.736;2023-01-13T15:21:21;2.20;;;0.50;;
12267;SDS011;6196;48.398;11.736;2023-01-13T15:23:49;1.77;;;0.53;;
12267;SDS011;6196;48.398;11.736;2023-01-13T15:26:18;1.40;;;0.60;;
12267;SDS011;6196;48.398;11.736;2023-01-13T15:28:54;3.10;;;0.70;;
12267;SDS011;6196;48.398;11.736;2023-01-13T15:33:55;1.83;;;0.50;;
12267;SDS011;6196;48.398;11.736;2023-01-13T15:36:24;1.77;;;0.63;;
12267;SDS011;6196;48.398;11.736;2023-01-13T15:38:52;0.67;;;0.43;;
12267;SDS011;6196;48.398;11.736;2023-01-13T15:41:19;3.47;;;1.10;;
12267;SDS011;6196;48.398;11.736;2023-01-13T15:44:08;2.70;;;0.77;;
12267;SDS011;6196;48.398;11.736;2023-01-13T15:46:56;3.77;;;1.00;;
12267;SDS011;6196;48.398;11.736;2023-01-13T15:49:33;5.07;;;0.83;;
12267;SDS011;6196;48.398;11.736;2023-01-13T15:52:04;2.43;;;0.63;;
12267;SDS011;6196;48.398;11.736;2023-01-13T15:54:47;3.83;;;0.90;;
12267;SDS011;6196;48.398;11.736;2023-01-13T15:57:21;4.17;;;0.73;;
12267;SDS011;6196;48.398;11.736;2023-01-13T15:59:51;3.47;;;2.00;;
12267;SDS011;6196;48.398;11.736;2023-01-13T16:02:22;25.70;;;23.60;;
12267;SDS011;6196;48.398;11.736;2023-01-13T16:04:50;34.50;;;30.90;;
12267;SDS011;6196;48.398;11.736;2023-01-13T16:07:19;8.67;;;7.77;;
12267;SDS011;6196;48.398;11.736;2023-01-13T16:09:49;3.17;;;1.00;;
12267;SDS011;6196;48.398;11.736;2023-01-13T16:12:17;3.37;;;0.90;;
12267;SDS011;6196;48.398;11.736;2023-01-13T16:14:43;6.30;;;2.60;;
12267;SDS011;6196;48.398;11.736;2023-01-13T16:17:13;6.67;;;6.07;;
12267;SDS011;6196;48.398;11.736;2023-01-13T16:19:43;2.67;;;2.13;;
12267;SDS011;6196;48.398;11.736;2023-01-13T16:22:11;2.30;;;0.80;;
12267;SDS011;6196;48.398;11.736;2023-01-13T16:24:40;1.43;;;0.80;;
12267;SDS011;6196;48.398;11.736;2023-01-13T16:29:46;1.50;;;0.70;;
12267;SDS011;6196;48.398;11.736;2023-01-13T16:32:13;4.10;;;0.93;;
12267;SDS011;6196;48.398;11.736;2023-01-13T16:34:41;1.90;;;1.40;;
12267;SDS011;6196;48.398;11.736;2023-01-13T16:37:11;2.47;;;1.27;;
12267;SDS011;6196;48.398;11.736;2023-01-13T16:39:49;3.73;;;1.50;;
12267;SDS011;6196;48.398;11.736;2023-01-13T16:42:16;5.67;;;3.33;;
12267;SDS011;6196;48.398;11.736;2023-01-13T16:44:44;2.10;;;1.47;;
12267;SDS011;6196;48.398;11.736;2023-01-13T16:47:13;3.37;;;1.83;;
12267;SDS011;6196;48.398;11.736;2023-01-13T16:49:43;2.97;;;1.40;;
12267;SDS011;6196;48.398;11.736;2023-01-13T16:52:10;2.80;;;1.33;;
12267;SDS011;6196;48.398;11.736;2023-01-13T16:54:37;3.27;;;1.10;;
12267;SDS011;6196;48.398;11.736;2023-01-13T16:57:04;3.83;;;1.10;;
12267;SDS011;6196;48.398;11.736;2023-01-13T16:59:32;1.70;;;1.00;;
12267;SDS011;6196;48.398;11.736;2023-01-13T17:01:59;2.43;;;1.07;;
12267;SDS011;6196;48.398;11.736;2023-01-13T17:04:27;3.07;;;1.00;;
12267;SDS011;6196;48.398;11.736;2023-01-13T17:06:57;2.03;;;1.17;;
12267;SDS011;6196;48.398;11.736;2023-01-13T17:09:29;1.53;;;0.83;;
12267;SDS011;6196;48.398;11.736;2023-01-13T17:11:56;4.07;;;1.10;;
12267;SDS011;6196;48.398;11.736;2023-01-13T17:14:24;3.63;;;1.10;;
12267;SDS011;6196;48.398;11.736;2023-01-13T17:16:54;3.17;;;1.30;;
12267;SDS011;6196;48.398;11.736;2023-01-13T17:19:23;2.03;;;1.00;;
12267;SDS011;6196;48.398;11.736;2023-01-13T17:21:51;1.60;;;0.90;;
12267;SDS011;6196;48.398;11.736;2023-01-13T17:24:18;1.43;;;0.80;;
12267;SDS011;6196;48.398;11.736;2023-01-13T17:26:46;2.70;;;0.97;;
12267;SDS011;6196;48.398;11.736;2023-01-13T17:29:16;3.77;;;1.20;;
12267;SDS011;6196;48.398;11.736;2023-01-13T17:31:50;3.43;;;1.30;;
12267;SDS011;6196;48.398;11.736;2023-01-13T17:34:18;3.47;;;1.70;;
12267;SDS011;6196;48.398;11.736;2023-01-13T17:36:46;3.50;;;2.37;;
12267;SDS011;6196;48.398;11.736;2023-01-13T17:39:14;2.43;;;1.60;;
12267;SDS011;6196;48.398;11.736;2023-01-13T17:41:46;4.63;;;2.73;;
12267;SDS011;6196;48.398;11.736;2023-01-13T17:44:14;5.47;;;4.03;;
12267;SDS011;6196;48.398;11.736;2023-01-13T17:46:42;6.57;;;4.50;;
12267;SDS011;6196;48.398;11.736;2023-01-13T17:49:13;10.03;;;6.30;;